sensor_id;sensor_type;location;lat;lon;timestamp;temperature;humidity
18712;DHT22;9485;49.386;8.674;2023-04-24T00:03:32;15.10;90.70
18712;DHT22;9485;49.386;8.674;2023-04-24T00:08:53;15.10;90.80
18712;DHT22;9485;49.386;8.674;2023-04-24T00:14:16;15.10;90.70
18712;DHT22;9485;49.386;8.674;2023-04-24T00:19:36;15.10;90.60
18712;DHT22;9485;49.386;8.674;2023-04-24T00:24:57;15.10;90.70
18712;DHT22;9485;49.386;8.674;2023-04-24T00:30:19;15.10;90.70
18712;DHT22;9485;49.386;8.674;2023-04-24T00:35:40;15.10;90.50
18712;DHT22;9485;49.386;8.674;2023-04-24T00:41:01;15.10;90.70
18712;DHT22;9485;49.386;8.674;2023-04-24T00:46:23;15.10;90.70
18712;DHT22;9485;49.386;8.674;2023-04-24T00:51:44;15.10;90.60
18712;DHT22;9485;49.386;8.674;2023-04-24T00:57:05;15.10;90.70
18712;DHT22;9485;49.386;8.674;2023-04-24T01:02:27;15.10;90.60
18712;DHT22;9485;49.386;8.674;2023-04-24T01:07:48;15.20;90.50
18712;DHT22;9485;49.386;8.674;2023-04-24T01:13:09;15.20;90.50
18712;DHT22;9485;49.386;8.674;2023-04-24T01:18:31;15.20;90.60
18712;DHT22;9485;49.386;8.674;2023-04-24T01:23:55;15.20;90.60
18712;DHT22;9485;49.386;8.674;2023-04-24T01:29:15;15.20;90.60
18712;DHT22;9485;49.386;8.674;2023-04-24T01:34:37;15.20;90.60
18712;DHT22;9485;49.386;8.674;2023-04-24T01:40:00;15.20;90.60
18712;DHT22;9485;49.386;8.674;2023-04-24T01:45:20;15.20;90.80
18712;DHT22;9485;49.386;8.674;2023-04-24T01:50:41;15.10;90.50
18712;DHT22;9485;49.386;8.674;2023-04-24T01:56:06;15.10;90.60
18712;DHT22;9485;49.386;8.674;2023-04-24T02:01:27;15.20;90.40
18712;DHT22;9485;49.386;8.674;2023-04-24T02:06:47;15.20;90.60
18712;DHT22;9485;49.386;8.674;2023-04-24T02:12:09;15.20;90.70
18712;DHT22;9485;49.386;8.674;2023-04-24T02:17:30;15.20;90.60
18712;DHT22;9485;49.386;8.674;2023-04-24T02:22:51;15.20;90.70
18712;DHT22;9485;49.386;8.674;2023-04-24T02:28:13;15.20;90.60
18712;DHT22;9485;49.386;8.674;2023-04-24T02:33:33;15.20;90.60
18712;DHT22;9485;49.386;8.674;2023-04-24T02:38:54;15.10;90.30
18712;DHT22;9485;49.386;8.674;2023-04-24T02:44:16;15.10;90.30
18712;DHT22;9485;49.386;8.674;2023-04-24T02:49:37;15.00;90.50
18712;DHT22;9485;49.386;8.674;2023-04-24T02:54:57;15.00;90.40
18712;DHT22;9485;49.386;8.674;2023-04-24T03:00:19;15.00;90.40
18712;DHT22;9485;49.386;8.674;2023-04-24T03:05:42;15.00;90.40
18712;DHT22;9485;49.386;8.674;2023-04-24T03:11:02;14.90;90.60
18712;DHT22;9485;49.386;8.674;2023-04-24T03:16:25;14.90;90.70
18712;DHT22;9485;49.386;8.674;2023-04-24T03:21:48;14.90;90.60
18712;DHT22;9485;49.386;8.674;2023-04-24T03:27:10;14.80;90.30
18712;DHT22;9485;49.386;8.674;2023-04-24T03:32:44;14.50;90.20
18712;DHT22;9485;49.386;8.674;2023-04-24T03:38:08;14.20;90.40
18712;DHT22;9485;49.386;8.674;2023-04-24T03:43:35;13.90;90.70
18712;DHT22;9485;49.386;8.674;2023-04-24T03:48:59;13.60;90.90
18712;DHT22;9485;49.386;8.674;2023-04-24T03:54:24;13.50;91.30
18712;DHT22;9485;49.386;8.674;2023-04-24T03:59:47;13.30;91.50
18712;DHT22;9485;49.386;8.674;2023-04-24T04:05:12;13.30;91.80
18712;DHT22;9485;49.386;8.674;2023-04-24T04:10:35;13.20;92.00
18712;DHT22;9485;49.386;8.674;2023-04-24T04:15:57;13.10;92.10
18712;DHT22;9485;49.386;8.674;2023-04-24T04:21:19;13.10;92.40
18712;DHT22;9485;49.386;8.674;2023-04-24T04:26:42;13.00;92.40
18712;DHT22;9485;49.386;8.674;2023-04-24T04:32:06;13.00;92.40
18712;DHT22;9485;49.386;8.674;2023-04-24T04:37:28;12.90;92.40
18712;DHT22;9485;49.386;8.674;2023-04-24T04:43:01;12.90;92.50
18712;DHT22;9485;49.386;8.674;2023-04-24T04:48:27;12.80;92.50
18712;DHT22;9485;49.386;8.674;2023-04-24T04:53:54;12.80;92.60
18712;DHT22;9485;49.386;8.674;2023-04-24T04:59:15;12.70;92.60
18712;DHT22;9485;49.386;8.674;2023-04-24T05:04:36;12.60;92.70
18712;DHT22;9485;49.386;8.674;2023-04-24T05:09:58;12.60;92.80
18712;DHT22;9485;49.386;8.674;2023-04-24T05:15:19;12.60;92.80
18712;DHT22;9485;49.386;8.674;2023-04-24T05:20:40;12.50;92.80
18712;DHT22;9485;49.386;8.674;2023-04-24T05:26:04;12.50;92.90
18712;DHT22;9485;49.386;8.674;2023-04-24T05:31:24;12.50;93.00
18712;DHT22;9485;49.386;8.674;2023-04-24T05:36:48;12.50;93.10
18712;DHT22;9485;49.386;8.674;2023-04-24T05:42:11;12.50;93.10
18712;DHT22;9485;49.386;8.674;2023-04-24T05:47:32;12.50;93.00
18712;DHT22;9485;49.386;8.674;2023-04-24T05:52:53;12.60;93.40
18712;DHT22;9485;49.386;8.674;2023-04-24T05:58:20;12.70;93.10
18712;DHT22;9485;49.386;8.674;2023-04-24T06:03:42;12.70;93.10
18712;DHT22;9485;49.386;8.674;2023-04-24T06:09:03;12.80;93.40
18712;DHT22;9485;49.386;8.674;2023-04-24T06:14:26;12.90;93.10
18712;DHT22;9485;49.386;8.674;2023-04-24T06:20:06;13.00;92.80
18712;DHT22;9485;49.386;8.674;2023-04-24T06:25:28;13.00;93.00
18712;DHT22;9485;49.386;8.674;2023-04-24T06:30:51;13.10;93.10
18712;DHT22;9485;49.386;8.674;2023-04-24T06:36:12;13.20;93.00
18712;DHT22;9485;49.386;8.674;2023-04-24T06:41:33;13.20;93.10
18712;DHT22;9485;49.386;8.674;2023-04-24T06:46:58;13.30;93.10
18712;DHT22;9485;49.386;8.674;2023-04-24T06:52:19;13.40;93.00
18712;DHT22;9485;49.386;8.674;2023-04-24T06:57:40;13.50;92.90
18712;DHT22;9485;49.386;8.674;2023-04-24T07:03:03;13.50;92.70
18712;DHT22;9485;49.386;8.674;2023-04-24T07:08:25;13.60;92.60
18712;DHT22;9485;49.386;8.674;2023-04-24T07:13:46;13.70;92.60
18712;DHT22;9485;49.386;8.674;2023-04-24T07:19:08;13.70;92.20
18712;DHT22;9485;49.386;8.674;2023-04-24T07:24:29;13.60;92.00
18712;DHT22;9485;49.386;8.674;2023-04-24T07:29:51;13.40;91.90
18712;DHT22;9485;49.386;8.674;2023-04-24T07:35:14;13.20;92.00
18712;DHT22;9485;49.386;8.674;2023-04-24T07:40:34;13.10;92.20
18712;DHT22;9485;49.386;8.674;2023-04-24T07:45:55;12.90;92.40
18712;DHT22;9485;49.386;8.674;2023-04-24T07:51:17;12.90;92.50
18712;DHT22;9485;49.386;8.674;2023-04-24T07:56:39;12.90;92.70
18712;DHT22;9485;49.386;8.674;2023-04-24T08:02:02;12.90;92.80
18712;DHT22;9485;49.386;8.674;2023-04-24T08:07:24;13.10;93.10
18712;DHT22;9485;49.386;8.674;2023-04-24T08:12:45;13.30;94.20
18712;DHT22;9485;49.386;8.674;2023-04-24T08:18:06;14.20;95.50
18712;DHT22;9485;49.386;8.674;2023-04-24T08:23:29;15.30;95.70
18712;DHT22;9485;49.386;8.674;2023-04-24T08:28:49;16.60;95.00
18712;DHT22;9485;49.386;8.674;2023-04-24T08:34:10;17.60;92.90
18712;DHT22;9485;49.386;8.674;2023-04-24T08:39:32;17.90;90.30
18712;DHT22;9485;49.386;8.674;2023-04-24T08:44:54;17.80;86.20
18712;DHT22;9485;49.386;8.674;2023-04-24T08:50:15;17.40;83.70
18712;DHT22;9485;49.386;8.674;2023-04-24T08:55:38;16.80;84.00
18712;DHT22;9485;49.386;8.674;2023-04-24T09:01:03;16.40;84.60
18712;DHT22;9485;49.386;8.674;2023-04-24T09:06:25;16.00;84.80
18712;DHT22;9485;49.386;8.674;2023-04-24T09:11:49;15.70;87.00
18712;DHT22;9485;49.386;8.674;2023-04-24T09:17:12;15.60;89.30
18712;DHT22;9485;49.386;8.674;2023-04-24T09:22:34;15.70;90.00
18712;DHT22;9485;49.386;8.674;2023-04-24T09:28:00;15.90;90.10
18712;DHT22;9485;49.386;8.674;2023-04-24T09:33:22;16.00;88.70
18712;DHT22;9485;49.386;8.674;2023-04-24T09:38:42;15.90;88.20
18712;DHT22;9485;49.386;8.674;2023-04-24T09:44:13;15.90;87.70
18712;DHT22;9485;49.386;8.674;2023-04-24T09:49:36;15.70;86.50
18712;DHT22;9485;49.386;8.674;2023-04-24T09:54:58;15.70;87.90
18712;DHT22;9485;49.386;8.674;2023-04-24T10:00:24;15.60;88.80
18712;DHT22;9485;49.386;8.674;2023-04-24T10:05:46;15.70;88.10
18712;DHT22;9485;49.386;8.674;2023-04-24T10:11:07;15.70;88.90
18712;DHT22;9485;49.386;8.674;2023-04-24T10:16:31;15.80;88.40
18712;DHT22;9485;49.386;8.674;2023-04-24T10:21:52;15.90;87.30
18712;DHT22;9485;49.386;8.674;2023-04-24T10:27:15;15.90;87.70
18712;DHT22;9485;49.386;8.674;2023-04-24T10:32:40;15.80;86.60
18712;DHT22;9485;49.386;8.674;2023-04-24T10:38:03;15.70;84.90
18712;DHT22;9485;49.386;8.674;2023-04-24T10:43:27;15.60;83.40
18712;DHT22;9485;49.386;8.674;2023-04-24T10:48:54;15.50;86.00
18712;DHT22;9485;49.386;8.674;2023-04-24T10:54:25;15.50;83.90
18712;DHT22;9485;49.386;8.674;2023-04-24T10:59:49;15.40;84.10
18712;DHT22;9485;49.386;8.674;2023-04-24T11:05:55;15.50;86.70
18712;DHT22;9485;49.386;8.674;2023-04-24T11:11:18;15.60;85.30
18712;DHT22;9485;49.386;8.674;2023-04-24T11:16:51;15.70;87.70
18712;DHT22;9485;49.386;8.674;2023-04-24T11:22:16;15.80;87.10
18712;DHT22;9485;49.386;8.674;2023-04-24T11:27:42;16.00;87.20
18712;DHT22;9485;49.386;8.674;2023-04-24T11:33:05;16.20;86.80
18712;DHT22;9485;49.386;8.674;2023-04-24T11:38:27;16.50;87.60
18712;DHT22;9485;49.386;8.674;2023-04-24T11:43:48;17.00;86.40
18712;DHT22;9485;49.386;8.674;2023-04-24T11:49:12;17.20;86.60
18712;DHT22;9485;49.386;8.674;2023-04-24T11:54:34;17.40;85.90
18712;DHT22;9485;49.386;8.674;2023-04-24T11:59:55;17.50;83.30
18712;DHT22;9485;49.386;8.674;2023-04-24T12:05:19;17.50;82.70
18712;DHT22;9485;49.386;8.674;2023-04-24T12:10:42;17.50;81.20
18712;DHT22;9485;49.386;8.674;2023-04-24T12:16:04;17.40;82.40
18712;DHT22;9485;49.386;8.674;2023-04-24T12:21:25;17.20;80.60
18712;DHT22;9485;49.386;8.674;2023-04-24T12:26:52;17.10;80.10
18712;DHT22;9485;49.386;8.674;2023-04-24T12:32:16;16.90;80.80
18712;DHT22;9485;49.386;8.674;2023-04-24T12:37:37;16.80;80.50
18712;DHT22;9485;49.386;8.674;2023-04-24T12:43:13;16.70;81.80
18712;DHT22;9485;49.386;8.674;2023-04-24T12:48:35;16.70;80.00
18712;DHT22;9485;49.386;8.674;2023-04-24T12:53:56;16.70;83.00
18712;DHT22;9485;49.386;8.674;2023-04-24T12:59:21;17.00;83.50
18712;DHT22;9485;49.386;8.674;2023-04-24T13:04:42;17.40;81.90
18712;DHT22;9485;49.386;8.674;2023-04-24T13:10:06;17.60;82.50
18712;DHT22;9485;49.386;8.674;2023-04-24T13:15:29;17.80;83.30
18712;DHT22;9485;49.386;8.674;2023-04-24T13:20:50;18.00;83.00
18712;DHT22;9485;49.386;8.674;2023-04-24T13:26:11;18.30;82.60
18712;DHT22;9485;49.386;8.674;2023-04-24T13:31:33;18.40;81.80
18712;DHT22;9485;49.386;8.674;2023-04-24T13:36:55;18.40;80.60
18712;DHT22;9485;49.386;8.674;2023-04-24T13:42:17;18.40;80.90
18712;DHT22;9485;49.386;8.674;2023-04-24T13:47:40;18.40;82.00
18712;DHT22;9485;49.386;8.674;2023-04-24T13:53:02;18.60;83.20
18712;DHT22;9485;49.386;8.674;2023-04-24T13:58:22;19.00;82.60
18712;DHT22;9485;49.386;8.674;2023-04-24T14:03:45;19.30;81.30
18712;DHT22;9485;49.386;8.674;2023-04-24T14:09:06;19.30;79.40
18712;DHT22;9485;49.386;8.674;2023-04-24T14:14:27;19.20;78.30
18712;DHT22;9485;49.386;8.674;2023-04-24T14:19:50;19.00;77.10
18712;DHT22;9485;49.386;8.674;2023-04-24T14:25:11;18.60;75.70
18712;DHT22;9485;49.386;8.674;2023-04-24T14:30:31;18.20;76.30
18712;DHT22;9485;49.386;8.674;2023-04-24T14:35:53;17.90;76.50
18712;DHT22;9485;49.386;8.674;2023-04-24T14:41:14;17.50;76.90
18712;DHT22;9485;49.386;8.674;2023-04-24T14:46:36;17.30;77.40
18712;DHT22;9485;49.386;8.674;2023-04-24T14:51:59;17.10;76.70
18712;DHT22;9485;49.386;8.674;2023-04-24T14:57:22;17.00;77.80
18712;DHT22;9485;49.386;8.674;2023-04-24T15:02:46;16.80;77.80
18712;DHT22;9485;49.386;8.674;2023-04-24T15:08:09;16.70;79.60
18712;DHT22;9485;49.386;8.674;2023-04-24T15:13:31;16.50;80.00
18712;DHT22;9485;49.386;8.674;2023-04-24T15:18:52;16.30;81.60
18712;DHT22;9485;49.386;8.674;2023-04-24T15:24:14;16.20;83.10
18712;DHT22;9485;49.386;8.674;2023-04-24T15:29:35;16.20;83.10
18712;DHT22;9485;49.386;8.674;2023-04-24T15:34:55;16.20;83.60
18712;DHT22;9485;49.386;8.674;2023-04-24T15:40:17;16.10;83.90
18712;DHT22;9485;49.386;8.674;2023-04-24T15:45:38;16.10;83.90
18712;DHT22;9485;49.386;8.674;2023-04-24T15:50:59;16.10;83.70
18712;DHT22;9485;49.386;8.674;2023-04-24T15:56:21;16.00;83.30
18712;DHT22;9485;49.386;8.674;2023-04-24T16:01:42;15.90;83.10
18712;DHT22;9485;49.386;8.674;2023-04-24T16:07:03;15.80;83.90
18712;DHT22;9485;49.386;8.674;2023-04-24T16:12:25;15.70;84.00
18712;DHT22;9485;49.386;8.674;2023-04-24T16:17:46;15.70;83.20
18712;DHT22;9485;49.386;8.674;2023-04-24T16:23:07;15.60;84.20
18712;DHT22;9485;49.386;8.674;2023-04-24T16:28:29;15.70;84.70
18712;DHT22;9485;49.386;8.674;2023-04-24T16:33:49;15.80;84.70
18712;DHT22;9485;49.386;8.674;2023-04-24T16:39:10;15.80;85.40
18712;DHT22;9485;49.386;8.674;2023-04-24T16:44:35;15.90;85.00
18712;DHT22;9485;49.386;8.674;2023-04-24T16:49:57;16.00;84.90
18712;DHT22;9485;49.386;8.674;2023-04-24T16:55:18;16.00;84.80
18712;DHT22;9485;49.386;8.674;2023-04-24T17:00:40;15.90;84.60
18712;DHT22;9485;49.386;8.674;2023-04-24T17:06:00;15.90;84.70
18712;DHT22;9485;49.386;8.674;2023-04-24T17:11:21;15.80;85.20
18712;DHT22;9485;49.386;8.674;2023-04-24T17:16:43;15.90;85.50
18712;DHT22;9485;49.386;8.674;2023-04-24T17:22:04;15.90;84.90
18712;DHT22;9485;49.386;8.674;2023-04-24T17:27:25;15.90;85.10
18712;DHT22;9485;49.386;8.674;2023-04-24T17:32:47;15.90;85.00
18712;DHT22;9485;49.386;8.674;2023-04-24T17:38:07;15.80;84.30
18712;DHT22;9485;49.386;8.674;2023-04-24T17:43:28;15.80;84.50
18712;DHT22;9485;49.386;8.674;2023-04-24T17:48:50;15.70;84.20
18712;DHT22;9485;49.386;8.674;2023-04-24T17:54:11;15.60;83.70
18712;DHT22;9485;49.386;8.674;2023-04-24T17:59:31;15.60;84.20
18712;DHT22;9485;49.386;8.674;2023-04-24T18:04:56;15.50;83.90
18712;DHT22;9485;49.386;8.674;2023-04-24T18:10:17;15.30;83.50
18712;DHT22;9485;49.386;8.674;2023-04-24T18:15:38;15.20;84.70
18712;DHT22;9485;49.386;8.674;2023-04-24T18:21:04;15.10;85.10
18712;DHT22;9485;49.386;8.674;2023-04-24T18:26:25;15.00;85.10
18712;DHT22;9485;49.386;8.674;2023-04-24T18:31:45;14.90;85.20
18712;DHT22;9485;49.386;8.674;2023-04-24T18:37:08;14.80;85.30
18712;DHT22;9485;49.386;8.674;2023-04-24T18:42:29;14.70;85.70
18712;DHT22;9485;49.386;8.674;2023-04-24T18:47:50;14.70;86.40
18712;DHT22;9485;49.386;8.674;2023-04-24T18:53:11;14.70;86.70
18712;DHT22;9485;49.386;8.674;2023-04-24T18:58:35;14.70;86.60
18712;DHT22;9485;49.386;8.674;2023-04-24T19:03:55;14.70;86.70
18712;DHT22;9485;49.386;8.674;2023-04-24T19:09:17;14.70;86.80
18712;DHT22;9485;49.386;8.674;2023-04-24T19:14:38;14.70;86.50
18712;DHT22;9485;49.386;8.674;2023-04-24T19:19:59;14.60;86.80
18712;DHT22;9485;49.386;8.674;2023-04-24T19:25:21;14.60;86.70
18712;DHT22;9485;49.386;8.674;2023-04-24T19:30:42;14.60;87.20
18712;DHT22;9485;49.386;8.674;2023-04-24T19:36:03;14.60;86.50
18712;DHT22;9485;49.386;8.674;2023-04-24T19:41:25;14.50;86.60
18712;DHT22;9485;49.386;8.674;2023-04-24T19:46:46;14.30;86.50
18712;DHT22;9485;49.386;8.674;2023-04-24T19:52:06;14.20;86.80
18712;DHT22;9485;49.386;8.674;2023-04-24T19:57:29;14.00;86.90
18712;DHT22;9485;49.386;8.674;2023-04-24T20:02:49;13.80;86.90
18712;DHT22;9485;49.386;8.674;2023-04-24T20:08:10;13.60;87.30
18712;DHT22;9485;49.386;8.674;2023-04-24T20:13:33;13.50;87.70
18712;DHT22;9485;49.386;8.674;2023-04-24T20:18:53;13.40;88.10
18712;DHT22;9485;49.386;8.674;2023-04-24T20:24:14;13.30;88.30
18712;DHT22;9485;49.386;8.674;2023-04-24T20:29:35;13.20;88.90
18712;DHT22;9485;49.386;8.674;2023-04-24T20:34:56;13.10;89.30
18712;DHT22;9485;49.386;8.674;2023-04-24T20:40:17;13.20;89.80
18712;DHT22;9485;49.386;8.674;2023-04-24T20:45:39;13.20;90.00
18712;DHT22;9485;49.386;8.674;2023-04-24T20:51:00;13.20;90.00
18712;DHT22;9485;49.386;8.674;2023-04-24T20:56:20;13.20;90.00
18712;DHT22;9485;49.386;8.674;2023-04-24T21:01:44;13.20;90.00
18712;DHT22;9485;49.386;8.674;2023-04-24T21:07:06;13.20;90.10
18712;DHT22;9485;49.386;8.674;2023-04-24T21:12:27;13.20;90.20
18712;DHT22;9485;49.386;8.674;2023-04-24T21:17:49;13.20;90.10
18712;DHT22;9485;49.386;8.674;2023-04-24T21:23:10;13.20;90.10
18712;DHT22;9485;49.386;8.674;2023-04-24T21:28:30;13.20;90.30
18712;DHT22;9485;49.386;8.674;2023-04-24T21:33:52;13.20;90.40
18712;DHT22;9485;49.386;8.674;2023-04-24T21:39:13;13.20;90.20
18712;DHT22;9485;49.386;8.674;2023-04-24T21:44:34;13.20;90.40
18712;DHT22;9485;49.386;8.674;2023-04-24T21:49:55;13.30;90.60
18712;DHT22;9485;49.386;8.674;2023-04-24T21:55:16;13.30;90.60
18712;DHT22;9485;49.386;8.674;2023-04-24T22:00:37;13.30;90.60
18712;DHT22;9485;49.386;8.674;2023-04-24T22:05:59;13.30;90.70
18712;DHT22;9485;49.386;8.674;2023-04-24T22:11:20;13.20;90.60
18712;DHT22;9485;49.386;8.674;2023-04-24T22:16:41;13.20;90.60
18712;DHT22;9485;49.386;8.674;2023-04-24T22:22:03;13.20;90.60
18712;DHT22;9485;49.386;8.674;2023-04-24T22:27:24;13.20;90.60
18712;DHT22;9485;49.386;8.674;2023-04-24T22:32:45;13.10;90.70
18712;DHT22;9485;49.386;8.674;2023-04-24T22:38:06;13.10;90.80
18712;DHT22;9485;49.386;8.674;2023-04-24T22:43:27;13.10;90.80
18712;DHT22;9485;49.386;8.674;2023-04-24T22:48:48;13.10;90.70
18712;DHT22;9485;49.386;8.674;2023-04-24T22:54:09;13.10;90.80
18712;DHT22;9485;49.386;8.674;2023-04-24T22:59:30;13.00;90.80
18712;DHT22;9485;49.386;8.674;2023-04-24T23:04:51;13.00;90.90
18712;DHT22;9485;49.386;8.674;2023-04-24T23:10:13;12.90;91.00
18712;DHT22;9485;49.386;8.674;2023-04-24T23:15:34;13.00;91.00
18712;DHT22;9485;49.386;8.674;2023-04-24T23:20:57;12.90;91.10
18712;DHT22;9485;49.386;8.674;2023-04-24T23:26:21;12.90;91.20
18712;DHT22;9485;49.386;8.674;2023-04-24T23:31:42;12.90;91.60
18712;DHT22;9485;49.386;8.674;2023-04-24T23:37:02;13.00;91.40
18712;DHT22;9485;49.386;8.674;2023-04-24T23:42:24;12.90;91.40
18712;DHT22;9485;49.386;8.674;2023-04-24T23:47:45;12.90;91.30
18712;DHT22;9485;49.386;8.674;2023-04-24T23:53:05;12.80;91.30
18712;DHT22;9485;49.386;8.674;2023-04-24T23:58:27;12.70;91.50
